createdAt,value
2023-04-12T00:00:21.958Z,8.70
2023-04-12T00:02:56.721Z,8.70
2023-04-12T00:05:27.243Z,8.60
2023-04-12T00:07:55.787Z,8.60
2023-04-12T00:10:26.506Z,8.60
2023-04-12T00:12:56.398Z,8.50
2023-04-12T00:15:26.224Z,8.60
2023-04-12T00:17:54.648Z,8.60
2023-04-12T00:20:24.571Z,8.60
2023-04-12T00:22:53.875Z,8.60
2023-04-12T00:25:25.564Z,8.60
2023-04-12T00:27:57.224Z,8.50
2023-04-12T00:30:26.009Z,8.50
2023-04-12T00:32:54.790Z,8.40
2023-04-12T00:35:24.165Z,8.40
2023-04-12T00:37:53.607Z,8.40
2023-04-12T00:40:22.981Z,8.40
2023-04-12T00:42:51.842Z,8.40
2023-04-12T00:45:23.964Z,8.50
2023-04-12T00:47:52.851Z,8.60
2023-04-12T00:50:21.804Z,8.70
2023-04-12T00:52:52.165Z,8.80
2023-04-12T00:55:21.669Z,9.00
2023-04-12T00:57:51.697Z,9.00
2023-04-12T01:00:23.874Z,9.10
2023-04-12T01:02:54.392Z,9.20
2023-04-12T01:05:27.320Z,9.20
2023-04-12T01:08:15.925Z,9.30
2023-04-12T01:10:54.972Z,9.30
2023-04-12T01:13:34.139Z,9.30
2023-04-12T01:16:19.586Z,9.30
2023-04-12T01:18:52.833Z,9.30
2023-04-12T01:21:33.227Z,9.30
2023-04-12T01:24:29.366Z,9.30
2023-04-12T01:27:00.976Z,9.20
2023-04-12T01:29:33.039Z,9.10
2023-04-12T01:32:04.421Z,9.10
2023-04-12T01:34:36.946Z,9.10
2023-04-12T01:37:06.670Z,9.00
2023-04-12T01:39:36.017Z,9.00
2023-04-12T01:42:05.556Z,8.90
2023-04-12T01:44:35.666Z,8.80
2023-04-12T01:47:04.313Z,8.70
2023-04-12T01:49:51.341Z,8.70
2023-04-12T01:52:22.929Z,8.70
2023-04-12T01:54:57.026Z,8.70
2023-04-12T01:57:28.463Z,8.70
2023-04-12T02:00:04.084Z,8.70
2023-04-12T02:02:42.587Z,8.70
2023-04-12T02:05:12.614Z,8.60
2023-04-12T02:07:42.280Z,8.60
2023-04-12T02:10:17.989Z,8.70
2023-04-12T02:12:49.242Z,8.60
2023-04-12T02:15:21.473Z,8.60
2023-04-12T02:17:54.349Z,8.50
2023-04-12T02:20:25.988Z,8.50
2023-04-12T02:22:56.344Z,8.40
2023-04-12T02:25:25.653Z,8.30
2023-04-12T02:27:54.680Z,8.20
2023-04-12T02:30:26.865Z,8.20
2023-04-12T02:32:57.854Z,8.20
2023-04-12T02:35:36.634Z,8.20
2023-04-12T02:38:10.339Z,8.10
2023-04-12T02:40:42.493Z,8.10
2023-04-12T02:43:16.423Z,8.00
2023-04-12T02:45:50.497Z,8.00
2023-04-12T02:48:19.661Z,8.00
2023-04-12T02:50:49.559Z,7.90
2023-04-12T02:53:25.625Z,7.90
2023-04-12T02:56:15.867Z,7.90
2023-04-12T02:58:44.924Z,7.90
2023-04-12T03:01:20.912Z,7.80
2023-04-12T03:04:18.889Z,7.80
2023-04-12T03:06:55.748Z,7.80
2023-04-12T03:09:32.562Z,7.70
2023-04-12T03:12:02.074Z,7.70
2023-04-12T03:14:34.649Z,7.80
2023-04-12T03:17:06.468Z,7.70
2023-04-12T03:19:38.235Z,7.80
2023-04-12T03:22:09.368Z,7.80
2023-04-12T03:24:43.014Z,7.70
2023-04-12T03:27:12.183Z,7.80
2023-04-12T03:29:42.500Z,7.80
2023-04-12T03:32:14.200Z,7.70
2023-04-12T03:34:45.951Z,7.70
2023-04-12T03:37:18.444Z,7.70
2023-04-12T03:39:49.221Z,7.70
2023-04-12T03:42:32.941Z,7.60
2023-04-12T03:45:12.250Z,7.60
2023-04-12T03:47:48.861Z,7.60
2023-04-12T03:50:21.063Z,7.60
2023-04-12T03:52:57.669Z,7.60
2023-04-12T03:55:32.671Z,7.50
2023-04-12T03:58:05.958Z,7.50
2023-04-12T04:00:42.725Z,7.50
2023-04-12T04:03:16.574Z,7.50
2023-04-12T04:05:57.495Z,7.50
2023-04-12T04:08:28.623Z,7.50
2023-04-12T04:10:58.559Z,7.50
2023-04-12T04:13:35.594Z,7.50
2023-04-12T04:16:12.428Z,7.50
2023-04-12T04:18:45.206Z,7.50
2023-04-12T04:21:16.470Z,7.50
2023-04-12T04:23:48.002Z,7.50
2023-04-12T04:26:33.795Z,7.50
2023-04-12T04:29:32.418Z,7.50
2023-04-12T04:32:04.249Z,7.50
2023-04-12T04:34:39.041Z,7.50
2023-04-12T04:37:14.343Z,7.50
2023-04-12T04:39:45.801Z,7.50
2023-04-12T04:42:15.129Z,7.50
2023-04-12T04:45:04.224Z,7.50
2023-04-12T04:47:38.860Z,7.50
2023-04-12T04:50:11.220Z,7.60
2023-04-12T04:52:41.293Z,7.60
2023-04-12T04:55:17.015Z,7.60
2023-04-12T04:57:49.182Z,7.60
2023-04-12T05:00:21.569Z,7.60
2023-04-12T05:02:56.506Z,7.60
2023-04-12T05:05:30.999Z,7.60
2023-04-12T05:08:11.916Z,7.60
2023-04-12T05:10:40.944Z,7.60
2023-04-12T05:13:10.759Z,7.60
2023-04-12T05:15:43.795Z,7.60
2023-04-12T05:18:12.613Z,7.60
2023-04-12T05:20:43.211Z,7.60
2023-04-12T05:23:11.889Z,7.60
2023-04-12T05:25:48.312Z,7.60
2023-04-12T05:28:19.020Z,7.60
2023-04-12T05:30:48.366Z,7.60
2023-04-12T05:33:22.112Z,7.60
2023-04-12T05:35:54.264Z,7.60
2023-04-12T05:38:24.416Z,7.70
2023-04-12T05:40:58.189Z,7.70
2023-04-12T05:43:26.980Z,7.70
2023-04-12T05:45:56.955Z,7.70
2023-04-12T05:48:26.195Z,7.70
2023-04-12T05:50:58.874Z,7.80
2023-04-12T05:53:29.988Z,7.70
2023-04-12T05:56:02.224Z,7.70
2023-04-12T05:58:31.447Z,7.80
2023-04-12T06:01:00.721Z,7.80
2023-04-12T06:03:30.833Z,7.80
2023-04-12T06:06:08.914Z,7.80
2023-04-12T06:08:38.270Z,7.80
2023-04-12T06:11:08.172Z,7.80
2023-04-12T06:13:37.353Z,7.80
2023-04-12T06:16:07.624Z,7.80
2023-04-12T06:18:36.385Z,7.90
2023-04-12T06:21:07.528Z,7.90
2023-04-12T06:23:36.572Z,7.90
2023-04-12T06:26:05.469Z,8.00
2023-04-12T06:28:35.397Z,8.00
2023-04-12T06:31:04.441Z,8.10
2023-04-12T06:33:38.060Z,8.10
2023-04-12T06:36:16.224Z,8.10
2023-04-12T06:38:45.079Z,8.10
2023-04-12T06:41:13.608Z,8.20
2023-04-12T06:43:42.517Z,8.20
2023-04-12T06:46:10.884Z,8.20
2023-04-12T06:48:39.928Z,8.20
2023-04-12T06:51:11.936Z,8.20
2023-04-12T06:53:40.640Z,8.20
2023-04-12T06:56:10.391Z,8.20
2023-04-12T06:58:39.107Z,8.30
2023-04-12T07:01:08.328Z,8.30
2023-04-12T07:03:37.627Z,8.40
2023-04-12T07:06:21.931Z,8.40
2023-04-12T07:08:56.497Z,8.40
2023-04-12T07:11:25.653Z,8.50
2023-04-12T07:13:55.324Z,8.50
2023-04-12T07:16:24.353Z,8.50
2023-04-12T07:18:53.043Z,8.50
2023-04-12T07:21:21.563Z,8.60
2023-04-12T07:23:51.753Z,8.60
2023-04-12T07:26:21.785Z,8.70
2023-04-12T07:28:51.299Z,8.70
2023-04-12T07:31:21.694Z,8.70
2023-04-12T07:33:52.136Z,8.70
2023-04-12T07:36:22.282Z,8.80
2023-04-12T07:38:55.860Z,8.90
2023-04-12T07:41:31.586Z,9.00
2023-04-12T07:44:01.944Z,9.00
2023-04-12T07:46:30.495Z,9.00
2023-04-12T07:49:00.348Z,9.00
2023-04-12T07:51:29.444Z,9.00
2023-04-12T07:53:58.840Z,9.00
2023-04-12T07:56:31.659Z,9.10
2023-04-12T07:59:01.156Z,9.20
2023-04-12T08:01:30.698Z,9.20
2023-04-12T08:04:01.481Z,9.20
2023-04-12T08:06:34.125Z,9.30
2023-04-12T08:09:03.573Z,9.30
2023-04-12T08:11:35.403Z,9.40
2023-04-12T08:14:04.543Z,9.40
2023-04-12T08:16:33.785Z,9.50
2023-04-12T08:19:05.145Z,9.40
2023-04-12T08:21:34.060Z,9.50
2023-04-12T08:24:03.597Z,9.50
2023-04-12T08:26:33.608Z,9.60
2023-04-12T08:29:02.466Z,9.60
2023-04-12T08:31:31.761Z,9.60
2023-04-12T08:34:01.108Z,9.70
2023-04-12T08:36:29.369Z,9.80
2023-04-12T08:39:00.690Z,9.80
2023-04-12T08:41:29.833Z,9.80
2023-04-12T08:44:02.172Z,9.80
2023-04-12T08:46:31.034Z,9.80
2023-04-12T08:49:00.120Z,9.80
2023-04-12T08:51:29.727Z,9.80
2023-04-12T08:53:59.266Z,9.80
2023-04-12T08:56:29.087Z,9.80
2023-04-12T08:59:00.939Z,9.90
2023-04-12T09:01:29.776Z,9.80
2023-04-12T09:03:58.884Z,9.80
2023-04-12T09:06:29.002Z,9.90
2023-04-12T09:09:08.122Z,10.00
2023-04-12T09:11:37.868Z,10.10
2023-04-12T09:14:23.573Z,10.10
2023-04-12T09:16:54.485Z,10.20
2023-04-12T09:19:34.258Z,10.30
2023-04-12T09:22:09.516Z,10.30
2023-04-12T09:24:53.566Z,10.30
2023-04-12T09:27:25.891Z,10.30
2023-04-12T09:30:10.999Z,10.40
2023-04-12T09:32:40.415Z,10.30
2023-04-12T09:35:10.871Z,10.30
2023-04-12T09:37:39.640Z,10.40
2023-04-12T09:40:11.281Z,10.50
2023-04-12T09:42:54.872Z,10.50
2023-04-12T09:45:28.444Z,10.60
2023-04-12T09:47:58.258Z,10.60
2023-04-12T09:50:30.085Z,10.60
2023-04-12T09:53:00.943Z,10.70
2023-04-12T09:55:34.431Z,10.80
2023-04-12T09:58:08.332Z,10.80
2023-04-12T10:00:45.248Z,10.80
2023-04-12T10:03:13.854Z,10.90
2023-04-12T10:05:44.366Z,10.90
2023-04-12T10:08:15.231Z,11.00
2023-04-12T10:10:47.723Z,11.10
2023-04-12T10:15:56.155Z,11.20
2023-04-12T10:18:27.186Z,11.40
2023-04-12T10:20:59.567Z,11.50
2023-04-12T10:23:29.688Z,11.60
2023-04-12T10:25:59.979Z,11.70
2023-04-12T10:28:29.281Z,11.70
2023-04-12T10:31:29.791Z,11.80
2023-04-12T10:33:58.466Z,11.80
2023-04-12T10:36:56.352Z,11.90
2023-04-12T10:39:45.418Z,11.90
2023-04-12T10:42:25.090Z,12.00
2023-04-12T10:45:00.353Z,12.00
2023-04-12T10:48:06.899Z,12.10
2023-04-12T10:50:36.937Z,12.10
2023-04-12T10:53:26.371Z,12.10
2023-04-12T10:55:59.642Z,12.10
2023-04-12T10:59:00.055Z,12.20
2023-04-12T11:01:36.755Z,12.30
2023-04-12T11:04:14.536Z,12.40
2023-04-12T11:07:00.055Z,12.60
2023-04-12T11:09:48.545Z,12.70
2023-04-12T11:12:28.296Z,12.80
2023-04-12T11:15:02.549Z,12.80
2023-04-12T11:18:01.231Z,13.00
2023-04-12T11:20:35.161Z,13.10
2023-04-12T11:23:05.969Z,13.20
2023-04-12T11:25:42.378Z,13.30
2023-04-12T11:28:25.132Z,13.30
2023-04-12T11:30:55.059Z,13.40
2023-04-12T11:33:34.808Z,13.50
2023-04-12T11:36:08.614Z,13.60
2023-04-12T11:38:38.625Z,13.60
2023-04-12T11:41:10.475Z,13.80
2023-04-12T11:43:42.947Z,13.80
2023-04-12T11:46:12.065Z,13.90
2023-04-12T11:48:44.728Z,14.00
2023-04-12T11:51:32.711Z,14.00
2023-04-12T11:54:01.295Z,14.00
2023-04-12T11:56:32.170Z,14.10
2023-04-12T11:59:03.342Z,14.10
2023-04-12T12:01:32.793Z,14.20
2023-04-12T12:04:04.453Z,14.20
2023-04-12T12:06:35.834Z,14.20
2023-04-12T12:09:06.263Z,14.40
2023-04-12T12:11:37.675Z,14.50
2023-04-12T12:14:08.213Z,14.50
2023-04-12T12:16:42.815Z,14.70
2023-04-12T12:19:16.142Z,14.70
2023-04-12T12:21:52.242Z,14.80
2023-04-12T12:24:21.009Z,14.90
2023-04-12T12:26:53.285Z,14.90
2023-04-12T12:29:25.867Z,15.00
2023-04-12T12:31:54.821Z,15.10
2023-04-12T12:34:25.272Z,15.00
2023-04-12T12:36:57.464Z,15.10
2023-04-12T12:39:26.752Z,15.10
2023-04-12T12:41:58.787Z,15.30
2023-04-12T12:44:28.810Z,15.40
2023-04-12T12:47:10.264Z,15.40
2023-04-12T12:49:46.162Z,15.30
2023-04-12T12:52:17.967Z,15.30
2023-04-12T12:54:47.613Z,15.10
2023-04-12T12:57:16.326Z,15.10
2023-04-12T12:59:50.352Z,15.10
2023-04-12T13:02:20.755Z,15.10
2023-04-12T13:04:50.292Z,15.30
2023-04-12T13:07:23.026Z,15.40
2023-04-12T13:09:52.484Z,15.40
2023-04-12T13:12:22.070Z,15.50
2023-04-12T13:14:56.091Z,15.50
2023-04-12T13:17:29.127Z,15.50
2023-04-12T13:19:59.463Z,15.40
2023-04-12T13:22:30.638Z,15.40
2023-04-12T13:25:00.630Z,15.40
2023-04-12T13:27:30.336Z,15.50
2023-04-12T13:29:59.004Z,15.50
2023-04-12T13:32:29.176Z,15.80
2023-04-12T13:34:59.026Z,15.90
2023-04-12T13:37:30.203Z,16.10
2023-04-12T13:39:59.192Z,16.10
2023-04-12T13:42:28.297Z,16.20
2023-04-12T13:44:57.510Z,16.20
2023-04-12T13:47:26.493Z,16.20
2023-04-12T13:49:59.623Z,16.00
2023-04-12T13:52:29.822Z,15.90
2023-04-12T13:55:08.628Z,15.90
2023-04-12T13:57:37.423Z,15.90
2023-04-12T14:00:08.441Z,16.10
2023-04-12T14:02:37.024Z,16.30
2023-04-12T14:05:09.655Z,16.40
2023-04-12T14:07:42.426Z,16.80
2023-04-12T14:10:12.161Z,16.80
2023-04-12T14:12:45.100Z,16.70
2023-04-12T14:15:18.999Z,16.60
2023-04-12T14:17:49.903Z,16.30
2023-04-12T14:20:20.650Z,16.20
2023-04-12T14:22:50.433Z,16.20
2023-04-12T14:25:21.705Z,16.10
2023-04-12T14:27:52.394Z,16.10
2023-04-12T14:30:27.397Z,15.90
2023-04-12T14:32:56.186Z,16.00
2023-04-12T14:35:29.817Z,16.10
2023-04-12T14:38:01.152Z,16.40
2023-04-12T14:40:30.258Z,16.60
2023-04-12T14:42:58.816Z,16.70
2023-04-12T14:45:28.326Z,17.00
2023-04-12T14:48:00.002Z,17.10
2023-04-12T14:50:29.893Z,17.10
2023-04-12T14:53:00.217Z,17.10
2023-04-12T14:55:31.021Z,17.00
2023-04-12T14:57:59.816Z,17.20
2023-04-12T15:00:31.896Z,17.30
2023-04-12T15:03:01.130Z,17.20
2023-04-12T15:05:32.212Z,17.20
2023-04-12T15:08:02.844Z,17.00
2023-04-12T15:10:33.975Z,16.80
2023-04-12T15:13:07.206Z,16.70
2023-04-12T15:15:36.664Z,16.60
2023-04-12T15:18:08.694Z,16.50
2023-04-12T15:20:38.496Z,16.40
2023-04-12T15:23:09.366Z,16.40
2023-04-12T15:25:39.237Z,16.30
2023-04-12T15:28:13.133Z,16.20
2023-04-12T15:30:42.051Z,16.10
2023-04-12T15:33:11.915Z,16.00
2023-04-12T15:35:40.262Z,15.60
2023-04-12T15:38:15.110Z,14.80
2023-04-12T15:40:45.991Z,14.20
2023-04-12T15:43:17.779Z,13.70
2023-04-12T15:45:46.738Z,13.40
2023-04-12T15:48:16.127Z,13.00
2023-04-12T15:50:46.989Z,12.90
2023-04-12T15:53:22.748Z,12.70
2023-04-12T15:55:54.427Z,12.50
2023-04-12T15:58:24.125Z,12.40
2023-04-12T16:00:55.084Z,12.30
2023-04-12T16:03:29.241Z,12.20
2023-04-12T16:05:58.750Z,12.20
2023-04-12T16:08:29.332Z,12.10
2023-04-12T16:10:59.376Z,12.20
2023-04-12T16:13:28.717Z,12.20
2023-04-12T16:15:58.051Z,12.30
2023-04-12T16:18:31.224Z,12.30
2023-04-12T16:21:00.060Z,12.30
2023-04-12T16:23:41.834Z,12.30
2023-04-12T16:26:12.164Z,12.20
2023-04-12T16:28:43.460Z,12.20
2023-04-12T16:31:16.128Z,12.10
2023-04-12T16:33:46.984Z,12.10
2023-04-12T16:36:16.998Z,12.10
2023-04-12T16:38:49.805Z,12.00
2023-04-12T16:41:18.610Z,12.00
2023-04-12T16:43:47.149Z,12.00
2023-04-12T16:46:15.989Z,12.00
2023-04-12T16:48:45.662Z,12.00
2023-04-12T16:51:16.940Z,11.90
2023-04-12T16:53:49.040Z,11.70
2023-04-12T16:56:17.606Z,11.70
2023-04-12T16:58:49.126Z,11.70
2023-04-12T17:01:19.039Z,11.80
2023-04-12T17:03:47.889Z,11.80
2023-04-12T17:06:29.273Z,11.80
2023-04-12T17:09:01.439Z,11.70
2023-04-12T17:11:30.441Z,11.60
2023-04-12T17:14:02.453Z,11.50
2023-04-12T17:16:32.269Z,11.40
2023-04-12T17:19:02.408Z,11.40
2023-04-12T17:21:42.576Z,11.40
2023-04-12T17:24:14.781Z,11.30
2023-04-12T17:26:43.781Z,11.20
2023-04-12T17:29:13.045Z,11.20
2023-04-12T17:31:42.292Z,11.20
2023-04-12T17:34:13.253Z,11.20
2023-04-12T17:36:43.166Z,11.20
2023-04-12T17:39:13.646Z,11.20
2023-04-12T17:41:43.606Z,11.10
2023-04-12T17:44:13.458Z,11.10
2023-04-12T17:46:43.559Z,11.10
2023-04-12T17:49:11.881Z,11.10
2023-04-12T17:51:40.787Z,11.10
2023-04-12T17:54:09.870Z,11.00
2023-04-12T17:56:42.794Z,11.00
2023-04-12T17:59:14.120Z,11.00
2023-04-12T18:01:42.743Z,11.00
2023-04-12T18:04:14.274Z,11.00
2023-04-12T18:06:43.253Z,11.00
2023-04-12T18:09:12.792Z,10.90
2023-04-12T18:11:43.730Z,10.90
2023-04-12T18:14:15.087Z,11.00
2023-04-12T18:16:44.373Z,10.90
2023-04-12T18:19:14.248Z,10.90
2023-04-12T18:21:44.105Z,10.90
2023-04-12T18:24:12.722Z,10.80
2023-04-12T18:26:44.263Z,10.80
2023-04-12T18:29:18.676Z,10.70
2023-04-12T18:31:48.892Z,10.70
2023-04-12T18:34:19.893Z,10.60
2023-04-12T18:36:48.904Z,10.60
2023-04-12T18:39:20.346Z,10.50
2023-04-12T18:41:51.028Z,10.50
2023-04-12T18:44:20.373Z,10.50
2023-04-12T18:46:49.131Z,10.50
2023-04-12T18:49:17.920Z,10.40
2023-04-12T18:51:46.801Z,10.40
2023-04-12T18:54:17.513Z,10.30
2023-04-12T18:56:46.038Z,10.30
2023-04-12T18:59:19.288Z,10.30
2023-04-12T19:01:49.339Z,10.30
2023-04-12T19:04:19.427Z,10.20
2023-04-12T19:06:49.479Z,10.20
2023-04-12T19:09:18.666Z,10.20
2023-04-12T19:11:47.878Z,10.10
2023-04-12T19:14:18.704Z,10.10
2023-04-12T19:16:49.798Z,10.10
2023-04-12T19:19:19.665Z,10.10
2023-04-12T19:21:50.129Z,10.10
2023-04-12T19:24:19.673Z,10.10
2023-04-12T19:26:53.216Z,10.10
2023-04-12T19:29:24.338Z,10.00
2023-04-12T19:31:55.127Z,10.10
2023-04-12T19:34:23.908Z,10.10
2023-04-12T19:36:54.502Z,10.10
2023-04-12T19:39:23.910Z,10.00
2023-04-12T19:41:52.518Z,10.00
2023-04-12T19:44:23.409Z,10.00
2023-04-12T19:46:52.895Z,10.00
2023-04-12T19:49:23.889Z,9.90
2023-04-12T19:51:52.712Z,10.00
2023-04-12T19:54:23.749Z,10.00
2023-04-12T19:56:55.559Z,10.00
2023-04-12T19:59:27.667Z,9.90
2023-04-12T20:01:58.315Z,10.00
2023-04-12T20:04:28.233Z,10.00
2023-04-12T20:06:57.382Z,10.00
2023-04-12T20:09:27.681Z,10.00
2023-04-12T20:11:58.991Z,10.00
2023-04-12T20:14:33.047Z,10.00
2023-04-12T20:17:06.196Z,10.00
2023-04-12T20:19:34.826Z,10.00
2023-04-12T20:22:06.444Z,10.00
2023-04-12T20:24:37.783Z,10.00
2023-04-12T20:27:16.976Z,9.90
2023-04-12T20:29:47.600Z,9.90
2023-04-12T20:32:16.307Z,9.90
2023-04-12T20:34:50.697Z,9.90
2023-04-12T20:37:20.934Z,9.90
2023-04-12T20:39:52.778Z,9.90
2023-04-12T20:42:23.327Z,9.90
2023-04-12T20:44:54.784Z,9.90
2023-04-12T20:47:24.178Z,9.80
2023-04-12T20:49:55.202Z,9.80
2023-04-12T20:52:25.440Z,9.90
2023-04-12T20:54:55.812Z,9.80
2023-04-12T20:57:26.052Z,9.90
2023-04-12T20:59:57.262Z,9.90
2023-04-12T21:02:29.536Z,9.90
2023-04-12T21:04:59.470Z,9.90
2023-04-12T21:07:28.770Z,9.80
2023-04-12T21:09:57.320Z,9.50
2023-04-12T21:12:26.546Z,9.30
2023-04-12T21:14:57.778Z,9.20
2023-04-12T21:17:27.711Z,9.20
2023-04-12T21:19:58.467Z,9.20
2023-04-12T21:22:28.400Z,9.10
2023-04-12T21:24:57.784Z,9.00
2023-04-12T21:27:28.049Z,8.90
2023-04-12T21:29:59.276Z,8.80
2023-04-12T21:32:31.578Z,8.80
2023-04-12T21:35:00.652Z,8.80
2023-04-12T21:37:29.922Z,8.80
2023-04-12T21:39:59.509Z,8.80
2023-04-12T21:42:30.566Z,8.70
2023-04-12T21:45:03.318Z,8.70
2023-04-12T21:47:33.218Z,8.60
2023-04-12T21:50:03.645Z,8.50
2023-04-12T21:52:36.057Z,8.50
2023-04-12T21:55:06.193Z,8.40
2023-04-12T21:57:37.357Z,8.40
2023-04-12T22:00:12.700Z,8.40
2023-04-12T22:02:44.526Z,8.40
2023-04-12T22:05:13.404Z,8.40
2023-04-12T22:07:43.953Z,8.30
2023-04-12T22:10:16.436Z,8.30
2023-04-12T22:12:50.570Z,8.40
2023-04-12T22:15:23.607Z,8.30
2023-04-12T22:17:52.122Z,8.30
2023-04-12T22:20:20.625Z,8.30
2023-04-12T22:22:49.770Z,8.30
2023-04-12T22:25:18.983Z,8.30
2023-04-12T22:27:48.622Z,8.30
2023-04-12T22:30:20.408Z,8.40
2023-04-12T22:32:50.426Z,8.40
2023-04-12T22:35:22.978Z,8.40
2023-04-12T22:37:52.136Z,8.50
2023-04-12T22:40:24.313Z,8.50
2023-04-12T22:42:53.833Z,8.50
2023-04-12T22:45:25.684Z,8.50
2023-04-12T22:47:54.807Z,8.50
2023-04-12T22:50:25.186Z,8.50
2023-04-12T22:52:54.766Z,8.50
2023-04-12T22:55:25.800Z,8.40
2023-04-12T22:57:55.395Z,8.40
2023-04-12T23:00:27.050Z,8.40
2023-04-12T23:02:56.517Z,8.40
2023-04-12T23:05:25.499Z,8.40
2023-04-12T23:07:55.470Z,8.40
2023-04-12T23:10:24.940Z,8.40
2023-04-12T23:12:55.463Z,8.40
2023-04-12T23:15:26.264Z,8.40
2023-04-12T23:17:55.201Z,8.30
2023-04-12T23:20:26.283Z,8.30
2023-04-12T23:22:57.971Z,8.30
2023-04-12T23:25:38.566Z,8.30
2023-04-12T23:28:12.972Z,8.30
2023-04-12T23:30:47.945Z,8.20
2023-04-12T23:33:18.456Z,8.20
2023-04-12T23:35:53.241Z,8.20
2023-04-12T23:38:32.864Z,8.20
2023-04-12T23:41:03.996Z,8.20
2023-04-12T23:43:35.878Z,8.20
2023-04-12T23:46:08.368Z,8.10
2023-04-12T23:48:38.767Z,8.10
2023-04-12T23:51:09.099Z,8.10
2023-04-12T23:53:39.560Z,8.10
2023-04-12T23:56:09.591Z,8.10
2023-04-12T23:58:37.901Z,8.00
